createdAt,value
2016-05-24T00:00:57.888Z,74.65
2016-05-24T00:01:57.718Z,75.13
2016-05-24T00:02:57.847Z,74.65
2016-05-24T00:03:57.834Z,75.81
2016-05-24T00:04:57.806Z,76.09
2016-05-24T00:05:57.792Z,76.29
2016-05-24T00:06:57.779Z,76.48
2016-05-24T00:07:57.766Z,76.64
2016-05-24T00:08:57.597Z,77.4
2016-05-24T00:09:57.740Z,78.36
2016-05-24T00:10:57.712Z,77.88
2016-05-24T00:11:57.699Z,77.4
2016-05-24T00:12:57.686Z,76.82
2016-05-24T00:13:57.658Z,77.59
2016-05-24T00:14:57.753Z,77.21
2016-05-24T00:15:57.631Z,76.73
2016-05-24T00:16:57.619Z,77.78
2016-05-24T00:17:57.606Z,77.69
2016-05-24T00:18:57.421Z,77.5
2016-05-24T00:19:57.580Z,76.73
2016-05-24T00:20:57.552Z,77.83
2016-05-24T00:21:57.539Z,78.08
2016-05-24T00:22:57.525Z,77.98
2016-05-24T00:23:57.497Z,77.4
2016-05-24T00:24:57.484Z,77.88
2016-05-24T00:25:57.315Z,77.69
2016-05-24T00:26:57.442Z,77.31
2016-05-24T00:27:57.430Z,76.92
2016-05-24T00:28:57.416Z,76.92
2016-05-24T00:29:57.404Z,76.92
2016-05-24T00:30:57.375Z,76.92
2016-05-24T00:31:57.363Z,76.34
2016-05-24T00:32:57.365Z,77.01
2016-05-24T00:33:57.337Z,76.82
2016-05-24T00:34:57.307Z,77.11
2016-05-24T00:35:57.295Z,76.82
2016-05-24T00:36:57.266Z,76.44
2016-05-24T00:37:57.269Z,76.57
2016-05-24T00:38:57.240Z,77.15
2016-05-24T00:39:57.071Z,76.82
2016-05-24T00:40:57.199Z,76.19
2016-05-24T00:41:57.201Z,76.39
2016-05-24T00:42:57.189Z,76.86
2016-05-24T00:43:57.003Z,77.06
2016-05-24T00:44:57.538Z,77.59
2016-05-24T00:45:57.134Z,77.5
2016-05-24T00:46:57.106Z,77.69
2016-05-24T00:47:57.092Z,78.08
2016-05-24T00:48:57.095Z,77.69
2016-05-24T00:49:57.067Z,77.88
2016-05-24T00:50:57.039Z,77.98
2016-05-24T00:51:57.025Z,77.88
2016-05-24T00:52:57.013Z,77.69
2016-05-24T00:53:57.015Z,77.69
2016-05-24T00:54:56.971Z,77.88
2016-05-24T00:55:56.974Z,77.78
2016-05-24T00:56:56.789Z,77.88
2016-05-24T00:57:56.932Z,78.08
2016-05-24T00:58:56.919Z,77.98
2016-05-24T00:59:57.671Z,77.98
2016-05-24T01:00:56.888Z,77.98
2016-05-24T01:01:56.904Z,78.27
2016-05-24T01:02:56.904Z,78.55
2016-05-24T01:03:56.936Z,77.88
2016-05-24T01:04:56.934Z,77.88
2016-05-24T01:05:56.786Z,77.88
2016-05-24T01:06:56.924Z,78.17
2016-05-24T01:07:56.921Z,78.75
2016-05-24T01:08:56.763Z,77.98
2016-05-24T01:09:56.760Z,78.3
2016-05-24T01:10:56.895Z,77.98
2016-05-24T01:11:56.886Z,78.75
2016-05-24T01:12:56.877Z,78.08
2016-05-24T01:13:56.867Z,78.55
2016-05-24T01:14:56.718Z,78.84
2016-05-24T01:15:56.834Z,78.94
2016-05-24T01:16:56.837Z,79.13
2016-05-24T01:17:56.809Z,78.84
2016-05-24T01:18:56.798Z,78.45
2016-05-24T01:19:56.785Z,78.65
2016-05-24T01:20:56.758Z,78.84
2016-05-24T01:21:56.746Z,79.03
2016-05-24T01:22:56.733Z,78.75
2016-05-24T01:23:56.705Z,79.22
2016-05-24T01:24:56.692Z,79.61
2016-05-24T01:25:56.680Z,79.22
2016-05-24T01:26:56.666Z,79.03
2016-05-24T01:27:56.655Z,79.52
2016-05-24T01:28:56.641Z,79.32
2016-05-24T01:29:57.473Z,79.76
2016-05-24T01:30:56.585Z,79.67
2016-05-24T01:31:56.589Z,79.61
2016-05-24T01:32:56.560Z,78.84
2016-05-24T01:33:56.547Z,79.42
2016-05-24T01:34:56.377Z,79.61
2016-05-24T01:35:56.505Z,79.57
2016-05-24T01:36:56.491Z,79.61
2016-05-24T01:37:56.480Z,79.9
2016-05-24T01:38:56.467Z,79.42
2016-05-24T01:39:56.282Z,79.52
2016-05-24T01:40:56.425Z,79.13
2016-05-24T01:41:56.396Z,80.19
2016-05-24T01:42:56.399Z,79.96
2016-05-24T01:43:56.385Z,79.8
2016-05-24T01:44:56.546Z,80.09
2016-05-24T01:45:56.344Z,79.96
2016-05-24T01:46:56.332Z,80.76
2016-05-24T01:47:56.318Z,80.28
2016-05-24T01:48:56.290Z,79.52
2016-05-24T01:49:56.277Z,79.61
2016-05-24T01:50:56.265Z,79.8
2016-05-24T01:51:56.079Z,79.8
2016-05-24T01:52:56.223Z,80.09
2016-05-24T01:53:56.053Z,80.86
2016-05-24T01:54:56.040Z,80.19
2016-05-24T01:55:56.168Z,80.28
2016-05-24T01:56:56.156Z,79.99
2016-05-24T01:57:56.142Z,80.57
2016-05-24T01:58:56.129Z,80.76
2016-05-24T01:59:56.101Z,80.57
2016-05-24T02:00:56.089Z,80.09
2016-05-24T02:01:56.075Z,79.99
2016-05-24T02:02:56.047Z,80.09
2016-05-24T02:03:56.033Z,80.28
2016-05-24T02:04:56.020Z,79.99
2016-05-24T02:05:56.007Z,80.09
2016-05-24T02:06:55.995Z,80.57
2016-05-24T02:07:55.983Z,80.76
2016-05-24T02:08:55.953Z,80.57
2016-05-24T02:09:55.924Z,80.38
2016-05-24T02:10:55.911Z,81.15
2016-05-24T02:11:55.899Z,80.86
2016-05-24T02:12:55.730Z,81.4
2016-05-24T02:13:55.702Z,82.54
2016-05-24T02:14:55.844Z,81.78
2016-05-24T02:15:55.847Z,81.87
2016-05-24T02:16:55.818Z,81.4
2016-05-24T02:17:55.805Z,81.53
2016-05-24T02:18:55.777Z,81.78
2016-05-24T02:19:55.764Z,81.97
2016-05-24T02:20:55.736Z,82.07
2016-05-24T02:21:55.738Z,81.63
2016-05-24T02:22:55.709Z,81.92
2016-05-24T02:23:55.540Z,81.63
2016-05-24T02:24:55.684Z,81.43
2016-05-24T02:25:55.671Z,81.15
2016-05-24T02:26:55.658Z,81.82
2016-05-24T02:27:55.629Z,82.2
2016-05-24T02:28:55.601Z,81.82
2016-05-24T02:29:55.604Z,82.26
2016-05-24T02:30:55.575Z,82.35
2016-05-24T02:31:55.406Z,82.07
2016-05-24T02:32:55.392Z,82.35
2016-05-24T02:33:55.364Z,81.53
2016-05-24T02:34:55.507Z,81.43
2016-05-24T02:35:55.511Z,81.92
2016-05-24T02:36:55.466Z,81.72
2016-05-24T02:37:55.469Z,81.53
2016-05-24T02:38:55.455Z,81.53
2016-05-24T02:39:55.427Z,81.53
2016-05-24T02:40:55.414Z,81.15
2016-05-24T02:41:55.402Z,81.15
2016-05-24T02:42:55.373Z,81.43
2016-05-24T02:43:55.360Z,81.34
2016-05-24T02:44:55.924Z,80.96
2016-05-24T02:45:55.396Z,80.86
2016-05-24T02:46:55.305Z,80.76
2016-05-24T02:47:55.293Z,81.05
2016-05-24T02:48:55.280Z,81.34
2016-05-24T02:49:55.266Z,80.57
2016-05-24T02:50:55.254Z,81.05
2016-05-24T02:51:55.225Z,81.43
2016-05-24T02:52:55.212Z,82.01
2016-05-24T02:53:55.231Z,81.43
2016-05-24T02:54:55.296Z,81.82
2016-05-24T02:55:55.173Z,81.82
2016-05-24T02:56:55.145Z,81.3
2016-05-24T02:57:54.960Z,81.43
2016-05-24T02:58:55.104Z,82.1
2016-05-24T02:59:54.934Z,82.54
2016-05-24T03:00:55.062Z,82.93
2016-05-24T03:01:54.892Z,82.84
2016-05-24T03:02:54.880Z,83.51
2016-05-24T03:03:54.867Z,83.03
2016-05-24T03:04:55.011Z,83.41
2016-05-24T03:05:54.997Z,83.41
2016-05-24T03:06:54.969Z,83.41
2016-05-24T03:07:54.956Z,83.03
2016-05-24T03:08:54.942Z,83.22
2016-05-24T03:09:54.945Z,83.51
2016-05-24T03:10:54.917Z,82.84
2016-05-24T03:11:54.888Z,83.41
2016-05-24T03:12:54.875Z,82.74
2016-05-24T03:13:54.862Z,82.64
2016-05-24T03:14:54.833Z,83.07
2016-05-24T03:15:54.821Z,82.93
2016-05-24T03:16:54.808Z,82.68
2016-05-24T03:17:54.780Z,83.03
2016-05-24T03:18:54.766Z,82.64
2016-05-24T03:19:54.753Z,82.93
2016-05-24T03:20:54.740Z,83.03
2016-05-24T03:21:54.727Z,83.51
2016-05-24T03:22:54.699Z,83.22
2016-05-24T03:23:54.671Z,83.22
2016-05-24T03:24:54.689Z,83.22
2016-05-24T03:25:54.645Z,82.54
2016-05-24T03:26:54.632Z,82.54
2016-05-24T03:27:54.618Z,82.84
2016-05-24T03:28:54.590Z,83.41
2016-05-24T03:29:54.593Z,82.93
2016-05-24T03:30:54.564Z,82.78
2016-05-24T03:31:54.551Z,82.68
2016-05-24T03:32:54.523Z,82.54
2016-05-24T03:33:54.509Z,83.41
2016-05-24T03:34:54.497Z,83.51
2016-05-24T03:35:54.469Z,83.41
2016-05-24T03:36:54.455Z,83.12
2016-05-24T03:37:54.287Z,82.74
2016-05-24T03:38:54.414Z,82.74
2016-05-24T03:39:54.433Z,82.64
2016-05-24T03:40:54.388Z,82.59
2016-05-24T03:41:54.375Z,82.2
2016-05-24T03:42:54.362Z,82.68
2016-05-24T03:43:54.350Z,83.16
2016-05-24T03:44:54.977Z,82.84
2016-05-24T03:45:54.308Z,82.84
2016-05-24T03:46:54.294Z,82.93
2016-05-24T03:47:54.266Z,82.64
2016-05-24T03:48:54.253Z,83.41
2016-05-24T03:49:54.225Z,83.51
2016-05-24T03:50:54.055Z,82.84
2016-05-24T03:51:54.215Z,82.87
2016-05-24T03:52:54.185Z,82.84
2016-05-24T03:53:54.174Z,82.97
2016-05-24T03:54:54.176Z,82.97
2016-05-24T03:55:54.148Z,82.87
2016-05-24T03:56:54.118Z,83.41
2016-05-24T03:57:54.106Z,83.41
2016-05-24T03:58:54.077Z,83.41
2016-05-24T03:59:54.079Z,83.6
2016-05-24T04:00:54.051Z,83.7
2016-05-24T04:01:54.039Z,83.41
2016-05-24T04:02:54.009Z,82.64
2016-05-24T04:03:54.012Z,82.49
2016-05-24T04:04:53.984Z,82.87
2016-05-24T04:05:53.971Z,82.84
2016-05-24T04:06:53.942Z,82.4
2016-05-24T04:07:53.930Z,82.4
2016-05-24T04:08:53.916Z,83.07
2016-05-24T04:09:53.888Z,82.45
2016-05-24T04:10:53.891Z,82.84
2016-05-24T04:11:53.878Z,82.84
2016-05-24T04:12:53.849Z,82.87
2016-05-24T04:13:53.836Z,82.49
2016-05-24T04:14:54.416Z,82.87
2016-05-24T04:15:53.794Z,82.87
2016-05-24T04:16:53.783Z,82.68
2016-05-24T04:17:53.769Z,82.87
2016-05-24T04:18:53.741Z,82.78
2016-05-24T04:19:53.727Z,82.78
2016-05-24T04:20:53.714Z,83.6
2016-05-24T04:21:53.686Z,82.59
2016-05-24T04:22:53.673Z,83.16
2016-05-24T04:23:53.660Z,82.78
2016-05-24T04:24:53.647Z,82.2
2016-05-24T04:25:53.462Z,82.49
2016-05-24T04:26:53.606Z,82.2
2016-05-24T04:27:53.592Z,82.2
2016-05-24T04:28:53.424Z,82.87
2016-05-24T04:29:53.567Z,82.59
2016-05-24T04:30:53.554Z,83.36
2016-05-24T04:31:53.525Z,82.64
2016-05-24T04:32:53.512Z,82.74
2016-05-24T04:33:53.500Z,82.64
2016-05-24T04:34:53.471Z,82.84
2016-05-24T04:35:53.473Z,82.68
2016-05-24T04:36:53.445Z,82.68
2016-05-24T04:37:53.416Z,82.59
2016-05-24T04:38:53.403Z,81.92
2016-05-24T04:39:53.234Z,81.72
2016-05-24T04:40:53.378Z,81.63
2016-05-24T04:41:53.349Z,81.34
2016-05-24T04:42:53.352Z,82.1
2016-05-24T04:43:53.322Z,81.53
2016-05-24T04:44:53.326Z,81.53
2016-05-24T04:45:53.297Z,81.92
2016-05-24T04:46:53.285Z,81.43
2016-05-24T04:47:53.255Z,81.53
2016-05-24T04:48:53.071Z,81.72
2016-05-24T04:49:53.245Z,82.2
2016-05-24T04:50:53.217Z,81.53
2016-05-24T04:51:53.189Z,81.15
2016-05-24T04:52:53.176Z,80.66
2016-05-24T04:53:53.162Z,81.53
2016-05-24T04:54:53.134Z,81.15
2016-05-24T04:55:52.965Z,81.15
2016-05-24T04:56:53.108Z,80.86
2016-05-24T04:57:53.080Z,80.99
2016-05-24T04:58:53.067Z,80.8
2016-05-24T04:59:53.115Z,81.24
2016-05-24T05:00:53.041Z,80.9
2016-05-24T05:01:53.028Z,80.71
2016-05-24T05:02:52.843Z,80.96
2016-05-24T05:03:52.987Z,81.19
2016-05-24T05:04:52.973Z,80.57
2016-05-24T05:05:52.945Z,81.19
2016-05-24T05:06:52.963Z,81.43
2016-05-24T05:07:52.934Z,81.43
2016-05-24T05:08:52.890Z,81.09
2016-05-24T05:09:52.878Z,81.57
2016-05-24T05:10:52.864Z,81.96
2016-05-24T05:11:52.695Z,82.78
2016-05-24T05:12:52.683Z,83.16
2016-05-24T05:13:52.670Z,83.74
2016-05-24T05:14:52.813Z,83.07
2016-05-24T05:15:52.784Z,83.16
2016-05-24T05:16:52.771Z,83.84
2016-05-24T05:17:52.758Z,83.93
2016-05-24T05:18:52.574Z,83.93
2016-05-24T05:19:52.717Z,83.74
2016-05-24T05:20:52.704Z,84.31
2016-05-24T05:21:52.675Z,84.12
2016-05-24T05:22:52.663Z,84.51
2016-05-24T05:23:52.650Z,84.12
2016-05-24T05:24:52.479Z,84.22
2016-05-24T05:25:52.624Z,84.31
2016-05-24T05:26:52.596Z,84.03
2016-05-24T05:27:52.426Z,84.31
2016-05-24T05:28:52.568Z,84.51
2016-05-24T05:29:52.540Z,84.51
2016-05-24T05:30:52.574Z,83.84
2016-05-24T05:31:52.515Z,84.31
2016-05-24T05:32:52.501Z,84.03
2016-05-24T05:33:52.490Z,83.16
2016-05-24T05:34:52.460Z,83.01
2016-05-24T05:35:52.447Z,83.49
2016-05-24T05:36:52.435Z,83.26
2016-05-24T05:37:52.422Z,83.26
2016-05-24T05:38:52.408Z,82.73
2016-05-24T05:39:52.380Z,82.92
2016-05-24T05:40:52.367Z,83.01
2016-05-24T05:41:52.198Z,82.92
2016-05-24T05:42:52.325Z,82.53
2016-05-24T05:43:52.172Z,82.92
2016-05-24T05:44:52.159Z,82.92
2016-05-24T05:45:52.521Z,82.82
2016-05-24T05:46:52.258Z,82.82
2016-05-24T05:47:52.244Z,83.2
2016-05-24T05:48:52.247Z,82.73
2016-05-24T05:49:52.220Z,82.63
2016-05-24T05:50:52.207Z,82.82
2016-05-24T05:51:52.178Z,82.24
2016-05-24T05:52:52.165Z,82.43
2016-05-24T05:53:52.136Z,82.92
2016-05-24T05:54:52.154Z,83.4
2016-05-24T05:55:52.110Z,83.69
2016-05-24T05:56:52.098Z,82.63
2016-05-24T05:57:52.085Z,82.63
2016-05-24T05:58:52.071Z,83.01
2016-05-24T05:59:52.199Z,82.63
2016-05-24T06:00:51.874Z,83.2
2016-05-24T06:01:52.017Z,82.73
2016-05-24T06:02:52.004Z,82.15
2016-05-24T06:03:51.991Z,82.73
2016-05-24T06:04:51.979Z,83.4
2016-05-24T06:05:51.950Z,83.59
2016-05-24T06:06:51.937Z,82.92
2016-05-24T06:07:51.908Z,82.82
2016-05-24T06:08:51.895Z,82.24
2016-05-24T06:09:51.882Z,82.82
2016-05-24T06:10:51.728Z,82.82
2016-05-24T06:11:51.842Z,82.53
2016-05-24T06:12:51.672Z,83.01
2016-05-24T06:13:54.127Z,82.82
2016-05-24T06:14:51.647Z,83.01
2016-05-24T06:15:51.883Z,82.57
2016-05-24T06:16:52.401Z,82.48
2016-05-24T06:17:52.247Z,82.73
2016-05-24T06:18:51.735Z,82.92
2016-05-24T06:19:51.722Z,82.92
2016-05-24T06:20:51.694Z,83.3
2016-05-24T06:21:51.540Z,83.59
2016-05-24T06:22:51.652Z,83.49
2016-05-24T06:23:51.654Z,83.11
2016-05-24T06:24:51.641Z,83.4
2016-05-24T06:25:51.613Z,83.49
2016-05-24T06:26:51.600Z,82.92
2016-05-24T06:27:51.587Z,82.96
2016-05-24T06:28:51.559Z,82.76
2016-05-24T06:29:51.562Z,82.86
2016-05-24T06:30:51.376Z,82.67
2016-05-24T06:31:51.520Z,82.76
2016-05-24T06:32:51.507Z,83.3
2016-05-24T06:33:51.479Z,83.59
2016-05-24T06:34:51.465Z,82.76
2016-05-24T06:35:51.453Z,82.73
2016-05-24T06:36:51.456Z,83.06
2016-05-24T06:37:51.411Z,83.01
2016-05-24T06:38:51.398Z,83.78
2016-05-24T06:39:51.385Z,83.97
2016-05-24T06:40:51.373Z,84.26
2016-05-24T06:41:51.344Z,83.97
2016-05-24T06:42:51.174Z,83.69
2016-05-24T06:43:51.317Z,83.11
2016-05-24T06:44:51.742Z,83.34
2016-05-24T06:45:51.448Z,83.06
2016-05-24T06:46:51.279Z,83.63
2016-05-24T06:47:51.250Z,82.96
2016-05-24T06:48:51.238Z,83.06
2016-05-24T06:49:51.225Z,82.57
2016-05-24T06:50:51.212Z,82.96
2016-05-24T06:51:51.199Z,83.34
2016-05-24T06:52:51.170Z,83.25
2016-05-24T06:53:51.157Z,83.53
2016-05-24T06:54:51.129Z,83.15
2016-05-24T06:55:51.116Z,83.53
2016-05-24T06:56:50.962Z,84.3
2016-05-24T06:57:51.090Z,84.4
2016-05-24T06:58:50.921Z,84.78
2016-05-24T06:59:51.533Z,84.94
2016-05-24T07:00:51.036Z,85.61
2016-05-24T07:01:51.023Z,85.71
2016-05-24T07:02:50.994Z,85.61
2016-05-24T07:03:50.996Z,85.89
2016-05-24T07:04:50.968Z,86.09
2016-05-24T07:05:50.955Z,85.8
2016-05-24T07:06:50.942Z,85.99
2016-05-24T07:07:50.914Z,85.71
2016-05-24T07:08:50.901Z,85.71
2016-05-24T07:09:50.904Z,85.89
2016-05-24T07:10:50.875Z,86.18
2016-05-24T07:11:50.862Z,86.09
2016-05-24T07:12:50.849Z,86.38
2016-05-24T07:13:50.821Z,86.38
2016-05-24T07:14:50.823Z,86.57
2016-05-24T07:15:51.028Z,86.57
2016-05-24T07:16:50.766Z,86.95
2016-05-24T07:17:50.753Z,86.95
2016-05-24T07:18:50.739Z,87.34
2016-05-24T07:19:50.727Z,87.19
2016-05-24T07:20:50.558Z,87.29
2016-05-24T07:21:50.717Z,87.49
2016-05-24T07:22:50.672Z,87.77
2016-05-24T07:23:50.660Z,87.77
2016-05-24T07:24:50.631Z,87.77
2016-05-24T07:25:50.619Z,87.77
2016-05-24T07:26:50.449Z,87.68
2016-05-24T07:27:50.593Z,87.68
2016-05-24T07:28:50.580Z,87.49
2016-05-24T07:29:50.723Z,87.58
2016-05-24T07:30:50.741Z,87.77
2016-05-24T07:31:50.618Z,87.58
2016-05-24T07:32:50.496Z,87.68
2016-05-24T07:33:50.499Z,87.39
2016-05-24T07:34:50.471Z,87.49
2016-05-24T07:35:50.551Z,87.68
2016-05-24T07:36:50.429Z,87.58
2016-05-24T07:37:50.416Z,87.72
2016-05-24T07:38:50.404Z,87.58
2016-05-24T07:39:50.265Z,87.49
2016-05-24T07:40:50.362Z,87.29
2016-05-24T07:41:50.395Z,87.96
2016-05-24T07:42:50.398Z,87.77
2016-05-24T07:43:50.323Z,87.58
2016-05-24T07:44:50.294Z,87.77
2016-05-24T07:45:50.282Z,88.54
2016-05-24T07:46:50.269Z,88.54
2016-05-24T07:47:53.271Z,88.45
2016-05-24T07:48:50.087Z,88.45
2016-05-24T07:49:50.261Z,88.35
2016-05-24T07:50:50.248Z,88.35
2016-05-24T07:51:50.173Z,88.45
2016-05-24T07:52:50.191Z,88.64
2016-05-24T07:53:50.147Z,88.54
2016-05-24T07:54:49.977Z,88.64
2016-05-24T07:55:50.105Z,88.64
2016-05-24T07:56:50.092Z,88.79
2016-05-24T07:57:50.095Z,88.73
2016-05-24T07:58:50.066Z,88.69
2016-05-24T07:59:49.882Z,88.25
2016-05-24T08:00:50.040Z,88.54
2016-05-24T08:01:50.012Z,88.21
2016-05-24T08:02:49.999Z,88.31
2016-05-24T08:03:49.986Z,88.31
2016-05-24T08:04:49.989Z,88.54
2016-05-24T08:05:49.945Z,88.45
2016-05-24T08:06:49.776Z,88.73
2016-05-24T08:07:49.903Z,87.29
2016-05-24T08:08:49.890Z,88.54
2016-05-24T08:09:49.877Z,87.77
2016-05-24T08:10:49.849Z,88.16
2016-05-24T08:11:49.836Z,87.63
2016-05-24T08:12:49.823Z,87.87
2016-05-24T08:13:49.810Z,87.77
2016-05-24T08:14:49.797Z,87.35
2016-05-24T08:15:49.628Z,86.96
2016-05-24T08:16:49.756Z,87.35
2016-05-24T08:17:49.743Z,86.58
2016-05-24T08:18:49.730Z,86.48
2016-05-24T08:19:49.716Z,86.62
2016-05-24T08:20:49.797Z,87.01
2016-05-24T08:21:49.676Z,86.29
2016-05-24T08:22:49.506Z,86.29
2016-05-24T08:23:49.650Z,86.29
2016-05-24T08:24:49.622Z,86.58
2016-05-24T08:25:49.608Z,86.68
2016-05-24T08:26:49.657Z,86.38
2016-05-24T08:27:49.566Z,86.43
2016-05-24T08:28:49.569Z,86.91
2016-05-24T08:29:49.556Z,86.29
2016-05-24T08:30:49.746Z,86.29
2016-05-24T08:31:49.530Z,86.1
2016-05-24T08:32:49.486Z,86.68
2016-05-24T08:33:49.473Z,86.68
2016-05-24T08:34:49.288Z,86.68
2016-05-24T08:35:49.479Z,87.05
2016-05-24T08:36:49.419Z,87.35
2016-05-24T08:37:49.390Z,87.29
2016-05-24T08:38:49.377Z,87.05
2016-05-24T08:39:49.395Z,86.29
2016-05-24T08:40:49.351Z,86.29
2016-05-24T08:41:49.338Z,86.52
2016-05-24T08:42:49.326Z,86.91
2016-05-24T08:43:49.298Z,87.1
2016-05-24T08:44:49.268Z,86.72
2016-05-24T08:45:49.271Z,86.24
2016-05-24T08:46:49.101Z,86.43
2016-05-24T08:47:49.073Z,86.81
2016-05-24T08:48:49.216Z,86.91
2016-05-24T08:49:49.031Z,86.72
2016-05-24T08:50:49.270Z,86.29
2016-05-24T08:51:49.209Z,86.43
2016-05-24T08:52:49.149Z,86.81
2016-05-24T08:53:49.136Z,86.33
2016-05-24T08:54:49.108Z,86.24
2016-05-24T08:55:49.204Z,87.1
2016-05-24T08:56:49.098Z,86.72
2016-05-24T08:57:48.991Z,86.91
2016-05-24T08:58:49.056Z,86.52
2016-05-24T08:59:49.058Z,86.62
2016-05-24T09:00:49.671Z,85.95
2016-05-24T09:01:49.002Z,86.14
2016-05-24T09:02:49.051Z,85.61
2016-05-24T09:03:48.977Z,85.71
2016-05-24T09:04:49.072Z,86.28
2016-05-24T09:05:48.934Z,85.32
2016-05-24T09:06:48.921Z,85.99
2016-05-24T09:07:48.908Z,85.61
2016-05-24T09:08:48.896Z,85.51
2016-05-24T09:09:48.710Z,85.13
2016-05-24T09:10:48.698Z,85.8
2016-05-24T09:11:48.841Z,85.61
2016-05-24T09:12:48.829Z,85.8
2016-05-24T09:13:48.799Z,85.41
2016-05-24T09:14:48.631Z,86.14
2016-05-24T09:15:50.759Z,86.33
2016-05-24T09:16:48.604Z,86.43
2016-05-24T09:17:48.732Z,86.14
2016-05-24T09:18:48.719Z,84.74
2016-05-24T09:19:48.690Z,86.05
2016-05-24T09:20:49.037Z,85.75
2016-05-24T09:21:48.509Z,85.41
2016-05-24T09:22:48.495Z,84.36
2016-05-24T09:23:48.639Z,84.74
2016-05-24T09:24:48.486Z,84.26
2016-05-24T09:25:49.395Z,84.17
2016-05-24T09:26:48.663Z,84.36
2016-05-24T09:27:48.571Z,84.74
2016-05-24T09:28:48.403Z,83.78
2016-05-24T09:29:48.546Z,84.17
2016-05-24T09:30:50.064Z,84.74
2016-05-24T09:31:48.505Z,83.63
2016-05-24T09:32:48.491Z,84.21
2016-05-24T09:33:48.463Z,83.73
2016-05-24T09:34:48.450Z,84.21
2016-05-24T09:35:50.046Z,83.83
2016-05-24T09:36:48.439Z,84.69
2016-05-24T09:37:48.427Z,84.4
2016-05-24T09:38:48.398Z,84.3
2016-05-24T09:39:48.369Z,84.01
2016-05-24T09:40:48.357Z,84.01
2016-05-24T09:41:48.406Z,84.98
2016-05-24T09:42:48.268Z,84.34
2016-05-24T09:43:48.318Z,83.92
2016-05-24T09:44:48.304Z,84.3
2016-05-24T09:45:49.370Z,84.01
2016-05-24T09:46:48.278Z,84.06
2016-05-24T09:47:48.141Z,83.92
2016-05-24T09:48:48.238Z,83.15
2016-05-24T09:49:48.224Z,83.67
2016-05-24T09:50:48.228Z,83.67
2016-05-24T09:51:48.183Z,83.58
2016-05-24T09:52:48.170Z,83.25
2016-05-24T09:53:48.157Z,82.61
2016-05-24T09:54:48.253Z,82.9
2016-05-24T09:55:48.147Z,83
2016-05-24T09:56:48.150Z,82.81
2016-05-24T09:57:48.105Z,82.65
2016-05-24T09:58:48.233Z,81.98
2016-05-24T09:59:48.158Z,81.7
2016-05-24T10:00:48.067Z,81.5
2016-05-24T10:01:48.069Z,81.5
2016-05-24T10:02:48.025Z,81.88
2016-05-24T10:03:48.091Z,81.4
2016-05-24T10:04:47.999Z,81.5
2016-05-24T10:05:47.985Z,81.25
2016-05-24T10:06:47.971Z,81.3
2016-05-24T10:07:47.980Z,80.87
2016-05-24T10:08:47.989Z,81.7
2016-05-24T10:09:48.014Z,81.3
2016-05-24T10:10:48.023Z,82.04
2016-05-24T10:11:48.491Z,81.88
2016-05-24T10:12:48.690Z,81.3
2016-05-24T10:13:49.045Z,80.83
2016-05-24T10:14:49.055Z,81.02
2016-05-24T10:15:48.598Z,81.02
2016-05-24T10:16:47.980Z,81.6
2016-05-24T10:17:48.080Z,81.21
2016-05-24T10:18:47.944Z,81.02
2016-05-24T10:19:47.933Z,80.77
2016-05-24T10:20:47.939Z,80.77
2016-05-24T10:21:47.912Z,81.5
2016-05-24T10:22:47.900Z,80
2016-05-24T10:23:47.889Z,79.9
2016-05-24T10:24:47.861Z,80.58
2016-05-24T10:25:47.849Z,80.68
2016-05-24T10:26:47.853Z,80.87
2016-05-24T10:27:47.840Z,79.71
2016-05-24T10:28:47.812Z,80.58
2016-05-24T10:29:47.815Z,80.1
2016-05-24T10:30:47.818Z,79.81
2016-05-24T10:31:50.024Z,78.88
2016-05-24T10:32:47.762Z,79.08
2016-05-24T10:33:47.717Z,79.27
2016-05-24T10:34:47.798Z,79.17
2016-05-24T10:35:48.800Z,78.88
2016-05-24T10:36:50.818Z,77.73
2016-05-24T10:37:47.743Z,78.44
2016-05-24T10:38:47.668Z,78.44
2016-05-24T10:39:47.498Z,77.96
2016-05-24T10:40:47.486Z,77.96
2016-05-24T10:41:47.645Z,77.28
2016-05-24T10:42:47.663Z,77
2016-05-24T10:43:47.603Z,77.67
2016-05-24T10:44:47.590Z,77.58
2016-05-24T10:45:47.592Z,77.96
2016-05-24T10:46:47.627Z,78.06
2016-05-24T10:47:47.598Z,78.25
2016-05-24T10:48:47.539Z,78.4
2016-05-24T10:49:47.525Z,77.48
2016-05-24T10:50:47.513Z,77.19
2016-05-24T10:51:49.453Z,77.25
2016-05-24T10:52:47.486Z,78.21
2016-05-24T10:53:47.536Z,77.25
2016-05-24T10:54:47.491Z,77.25
2016-05-24T10:55:47.448Z,76.23
2016-05-24T10:56:47.435Z,75.3
2016-05-24T10:57:47.422Z,77.48
2016-05-24T10:58:47.237Z,76.67
2016-05-24T10:59:47.380Z,76.61
2016-05-24T11:00:47.367Z,76.71
2016-05-24T11:01:48.543Z,77.19
2016-05-24T11:02:47.342Z,76.32
2016-05-24T11:03:47.329Z,76.71
2016-05-24T11:04:47.332Z,75.88
2016-05-24T11:05:47.318Z,76.17
2016-05-24T11:06:49.837Z,76.26
2016-05-24T11:07:47.152Z,76.17
2016-05-24T11:08:47.279Z,75.34
2016-05-24T11:09:47.267Z,75.14
2016-05-24T11:10:47.223Z,75.43
2016-05-24T11:11:47.241Z,75.24
2016-05-24T11:12:47.212Z,75.34
2016-05-24T11:13:47.199Z,76.55
2016-05-24T11:14:47.187Z,76.32
2016-05-24T11:15:47.189Z,75.4
2016-05-24T11:16:49.394Z,74.91
2016-05-24T11:17:47.148Z,75.3
2016-05-24T11:18:47.228Z,75.01
2016-05-24T11:19:46.981Z,75.68
2016-05-24T11:20:47.141Z,75.84
2016-05-24T11:21:47.627Z,74.14
2016-05-24T11:22:47.099Z,74.76
2016-05-24T11:23:47.070Z,73.6
2016-05-24T11:24:47.057Z,73.99
2016-05-24T11:25:47.044Z,74.57
2016-05-24T11:26:47.078Z,75.05
2016-05-24T11:27:47.034Z,73.79
2016-05-24T11:28:47.162Z,73.63
2016-05-24T11:29:47.071Z,72.8
2016-05-24T11:30:46.996Z,72.48
2016-05-24T11:31:46.998Z,73.06
2016-05-24T11:32:46.829Z,72.67
2016-05-24T11:33:46.957Z,72.38
2016-05-24T11:34:46.960Z,72.58
2016-05-24T11:35:46.962Z,72.77
2016-05-24T11:36:46.948Z,72.77
2016-05-24T11:37:46.936Z,72.58
2016-05-24T11:38:47.001Z,72.28
2016-05-24T11:39:47.004Z,72.38
2016-05-24T11:40:47.006Z,71.9
2016-05-24T11:41:46.900Z,71.7
2016-05-24T11:42:46.887Z,71.36
2016-05-24T11:43:46.733Z,71.3
2016-05-24T11:44:46.720Z,71.36
2016-05-24T11:45:47.019Z,69.56
2016-05-24T11:46:46.866Z,71.3
2016-05-24T11:47:46.838Z,71.88
2016-05-24T11:48:46.841Z,72.48
2016-05-24T11:49:46.812Z,71.36
2016-05-24T11:50:46.831Z,72.28
2016-05-24T11:51:46.816Z,70.78
2016-05-24T11:52:46.867Z,69.78
2016-05-24T11:53:46.823Z,70.26
2016-05-24T11:54:46.810Z,70.52
2016-05-24T11:55:46.813Z,71.55
2016-05-24T11:56:46.862Z,71.06
2016-05-24T11:57:46.786Z,70.42
2016-05-24T11:58:46.618Z,69.81
2016-05-24T11:59:46.604Z,71.9
2016-05-24T12:00:47.169Z,72.06
2016-05-24T12:01:46.735Z,69.81
2016-05-24T12:02:46.893Z,68.4
2016-05-24T12:03:46.724Z,68.72
2016-05-24T12:04:46.727Z,69.65
2016-05-24T12:05:46.558Z,69.52
2016-05-24T12:06:46.717Z,69.62
2016-05-24T12:07:46.813Z,68.59
2016-05-24T12:08:46.816Z,67.94
2016-05-24T12:09:46.694Z,68.08
2016-05-24T12:10:46.587Z,67.04
2016-05-24T12:11:46.684Z,66.24
2016-05-24T12:12:46.686Z,68.08
2016-05-24T12:13:46.798Z,68.1
2016-05-24T12:14:46.661Z,68.04
2016-05-24T12:15:46.600Z,67.79
2016-05-24T12:16:46.478Z,67.69
2016-05-24T12:17:46.637Z,67.4
2016-05-24T12:18:46.656Z,67.33
2016-05-24T12:19:46.611Z,68.17
2016-05-24T12:20:46.488Z,67.21
2016-05-24T12:21:46.601Z,68.17
2016-05-24T12:22:46.603Z,68.75
2016-05-24T12:23:46.591Z,69.3
2016-05-24T12:24:46.593Z,68.98
2016-05-24T12:25:46.566Z,68.3
2016-05-24T12:26:46.568Z,68.33
2016-05-24T12:27:46.585Z,67.75
2016-05-24T12:28:46.635Z,68.04
2016-05-24T12:29:46.560Z,67.33
2016-05-24T12:30:47.016Z,67.56
2016-05-24T12:31:46.535Z,68.4
2016-05-24T12:32:46.537Z,69.65
2016-05-24T12:33:46.524Z,69.04
2016-05-24T12:34:46.527Z,68.07
2016-05-24T12:35:46.514Z,66.78
2016-05-24T12:36:46.501Z,67.36
2016-05-24T12:37:46.582Z,68.98
2016-05-24T12:38:46.537Z,68.65
2016-05-24T12:39:46.603Z,68.84
2016-05-24T12:40:46.481Z,68.59
2016-05-24T12:41:46.436Z,67.52
2016-05-24T12:42:46.501Z,67.08
2016-05-24T12:43:46.456Z,66.2
2016-05-24T12:44:47.694Z,67.17
2016-05-24T12:45:46.463Z,66.5
2016-05-24T12:46:46.293Z,66.69
2016-05-24T12:47:46.420Z,66.5
2016-05-24T12:48:46.470Z,66.78
2016-05-24T12:49:47.614Z,65.95
2016-05-24T12:50:46.429Z,65.08
2016-05-24T12:51:46.261Z,64.14
2016-05-24T12:52:46.403Z,64.24
2016-05-24T12:53:46.437Z,63.89
2016-05-24T12:54:46.409Z,62.95
2016-05-24T12:55:46.458Z,63.63